Time;durP1;ratioP1;P1;durP2;ratioP2;P2;SDS_P1;SDS_P2;PMS_P1;PMS_P2;Temp;Humidity;BMP_temperature;BMP_pressure;BME280_temperature;BME280_humidity;BME280_pressure;Samples;Min_cycle;Max_cycle;Signal;HPM_P1;HPM_P2
2023/07/02 00:00:25;;;;;;;0.50;0.30;;;;;;;20.44;100.00;94806.94;5072813;28;20438;-58
2023/07/02 00:02:53;;;;;;;0.40;0.30;;;;;;;20.52;100.00;94805.97;5073621;28;20524;-58
2023/07/02 00:05:21;;;;;;;0.50;0.30;;;;;;;20.43;100.00;94808.06;5072789;28;20441;-58
2023/07/02 00:07:50;;;;;;;0.50;0.30;;;;;;;20.66;100.00;94792.91;5073907;28;20437;-58
2023/07/02 00:10:18;;;;;;;0.50;0.47;;;;;;;20.10;100.00;94809.03;5073086;28;20520;-59
2023/07/02 00:12:46;;;;;;;1.47;0.93;;;;;;;20.22;100.00;94800.94;5073248;28;20491;-58
2023/07/02 00:15:15;;;;;;;2.40;0.70;;;;;;;20.30;100.00;94807.31;5073266;28;20477;-58
2023/07/02 00:17:45;;;;;;;0.50;0.30;;;;;;;20.40;100.00;94804.13;5072544;28;20472;-58
2023/07/02 00:20:16;;;;;;;0.70;0.70;;;;;;;19.82;100.00;94808.22;5072069;28;20446;-58
2023/07/02 00:22:46;;;;;;;0.40;0.30;;;;;;;19.89;100.00;94802.25;5072946;28;20520;-59
2023/07/02 00:25:15;;;;;;;1.50;1.23;;;;;;;20.36;100.00;94787.13;5072885;28;20889;-58
2023/07/02 00:27:43;;;;;;;2.27;0.53;;;;;;;19.95;100.00;94796.31;5072814;28;20445;-58
2023/07/02 00:30:12;;;;;;;0.60;0.50;;;;;;;20.11;100.00;94802.53;5071929;28;20463;-57
2023/07/02 00:32:41;;;;;;;1.33;0.57;;;;;;;20.05;100.00;94797.72;5061799;28;20799;-58
2023/07/02 00:35:11;;;;;;;0.60;0.50;;;;;;;20.17;100.00;94798.47;5073130;28;20970;-58
2023/07/02 00:37:39;;;;;;;1.03;0.57;;;;;;;20.26;100.00;94803.75;5072364;28;20538;-58
2023/07/02 00:40:09;;;;;;;5.60;0.40;;;;;;;20.25;100.00;94797.59;5073068;28;20973;-58
2023/07/02 00:42:37;;;;;;;0.70;0.70;;;;;;;19.33;100.00;94697.28;5072658;28;20476;-58
2023/07/02 00:45:07;;;;;;;1.17;1.10;;;;;;;20.26;100.00;94783.00;5071379;28;20437;-57
2023/07/02 00:47:36;;;;;;;0.53;0.53;;;;;;;20.31;100.00;94775.81;5072316;28;20472;-58
2023/07/02 00:50:06;;;;;;;0.40;0.30;;;;;;;20.78;100.00;94777.47;5072319;28;20518;-58
2023/07/02 00:52:36;;;;;;;0.70;0.30;;;;;;;20.77;100.00;94764.34;5072237;28;20438;-58
2023/07/02 00:55:05;;;;;;;0.40;0.30;;;;;;;20.85;100.00;94758.78;5072128;28;20437;-58
2023/07/02 00:57:33;;;;;;;0.50;0.30;;;;;;;20.94;100.00;94747.06;5072579;28;21039;-58
2023/07/02 01:00:02;;;;;;;0.70;0.40;;;;;;;21.05;100.00;94756.19;5071920;28;20430;-57
2023/07/02 01:02:31;;;;;;;0.40;0.30;;;;;;;21.08;100.00;94766.28;5070879;28;20446;-57
2023/07/02 01:04:59;;;;;;;0.90;0.40;;;;;;;21.08;100.00;94760.88;5072326;28;20450;-57
2023/07/02 01:07:29;;;;;;;0.63;0.60;;;;;;;21.03;100.00;94753.84;5072382;28;20441;-57
2023/07/02 01:09:59;;;;;;;0.40;0.30;;;;;;;20.99;100.00;94755.66;5072212;28;20503;-57
2023/07/02 01:12:29;;;;;;;0.40;0.30;;;;;;;20.98;100.00;94754.09;5072266;28;20441;-57
2023/07/02 01:15:01;;;;;;;0.40;0.30;;;;;;;20.85;100.00;94748.00;5070870;28;20538;-57
2023/07/02 01:17:37;;;;;;;0.50;0.30;;;;;;;21.19;100.00;94751.94;5071789;28;20477;-57
2023/07/02 01:20:10;;;;;;;0.50;0.50;;;;;;;21.23;100.00;94757.41;5072214;28;20947;-57
2023/07/02 01:22:38;;;;;;;0.50;0.30;;;;;;;21.13;100.00;94758.72;5071976;28;20437;-58
2023/07/02 01:25:08;;;;;;;2.70;2.60;;;;;;;20.62;100.00;94757.00;5072219;28;20455;-58
2023/07/02 01:27:38;;;;;;;1.00;0.90;;;;;;;20.30;100.00;94752.72;5045680;28;20520;-58
2023/07/02 01:30:08;;;;;;;1.43;0.53;;;;;;;20.70;100.00;94745.31;5071527;28;20442;-58
2023/07/02 01:32:38;;;;;;;0.60;0.30;;;;;;;20.93;100.00;94740.88;5071216;28;20839;-58
2023/07/02 01:35:09;;;;;;;2.70;0.97;;;;;;;20.98;100.00;94746.00;5071750;28;21005;-58
2023/07/02 01:37:38;;;;;;;0.50;0.30;;;;;;;21.09;100.00;94733.63;5070289;28;20952;-58
2023/07/02 01:40:08;;;;;;;0.50;0.40;;;;;;;21.12;100.00;94735.63;5071175;28;20500;-58
2023/07/02 01:42:36;;;;;;;0.70;0.70;;;;;;;20.87;100.00;94731.50;5071473;28;20527;-58
2023/07/02 01:45:05;;;;;;;0.93;0.40;;;;;;;20.59;100.00;94747.72;5072023;28;20438;-58
2023/07/02 01:47:34;;;;;;;0.40;0.30;;;;;;;19.99;100.00;94750.66;5072090;28;20442;-58
2023/07/02 01:50:04;;;;;;;0.83;0.60;;;;;;;20.35;100.00;94747.88;5070378;28;20434;-58
2023/07/02 01:52:34;;;;;;;1.13;0.77;;;;;;;20.67;100.00;94748.72;5071345;28;20524;-58
2023/07/02 01:55:03;;;;;;;0.40;0.30;;;;;;;20.89;100.00;94754.28;5070709;28;20930;-58
2023/07/02 01:57:31;;;;;;;33.10;0.83;;;;;;;20.66;100.00;94760.59;5071307;28;20548;-58
2023/07/02 02:00:00;;;;;;;0.60;0.60;;;;;;;20.31;100.00;94765.03;5071616;28;20433;-58
2023/07/02 02:02:28;;;;;;;0.50;0.40;;;;;;;20.26;100.00;94758.00;5071436;28;20437;-58
2023/07/02 02:04:57;;;;;;;1.10;0.53;;;;;;;19.68;100.00;94753.25;5071945;28;20465;-58
2023/07/02 02:07:26;;;;;;;2.53;0.40;;;;;;;19.96;100.00;94768.28;5070606;28;20503;-57
2023/07/02 02:09:56;;;;;;;0.40;0.30;;;;;;;20.21;100.00;94763.59;5070409;28;20449;-58
2023/07/02 02:12:24;;;;;;;1.37;0.40;;;;;;;20.30;100.00;94755.41;5070518;28;20503;-58
2023/07/02 02:14:52;;;;;;;3.50;0.60;;;;;;;20.56;100.00;94769.19;5071447;28;20473;-58
2023/07/02 02:17:21;;;;;;;0.60;0.40;;;;;;;20.45;100.00;94760.03;5070775;28;20472;-58
2023/07/02 02:19:49;;;;;;;0.40;0.20;;;;;;;20.35;100.00;94744.38;5071041;28;20442;-57
2023/07/02 02:22:17;;;;;;;1.97;1.23;;;;;;;20.22;100.00;94749.00;5070115;28;20524;-58
2023/07/02 02:24:46;;;;;;;0.40;0.30;;;;;;;20.42;100.00;94758.81;5070632;28;20442;-57
2023/07/02 02:27:15;;;;;;;0.50;0.33;;;;;;;20.69;100.00;94743.75;5070290;28;20481;-57
2023/07/02 02:29:44;;;;;;;0.90;0.50;;;;;;;20.79;100.00;94745.94;5069607;28;20438;-58
2023/07/02 02:32:12;;;;;;;0.40;0.27;;;;;;;20.88;100.00;94738.44;5070147;28;20491;-58
2023/07/02 02:34:40;;;;;;;0.50;0.50;;;;;;;20.89;100.00;94730.03;5070013;28;20450;-58
2023/07/02 02:37:09;;;;;;;0.57;0.40;;;;;;;20.53;100.00;94743.72;5070389;28;20469;-58
2023/07/02 02:39:37;;;;;;;0.67;0.50;;;;;;;20.47;100.00;94738.94;5068059;28;20480;-58
2023/07/02 02:42:06;;;;;;;0.50;0.50;;;;;;;20.62;100.00;94743.56;5072245;28;20476;-58
2023/07/02 02:44:36;;;;;;;0.80;0.80;;;;;;;20.53;100.00;94738.34;5061701;28;20954;-58
2023/07/02 02:47:05;;;;;;;0.50;0.40;;;;;;;20.40;100.00;94723.38;5074270;28;20506;-58
2023/07/02 02:49:33;;;;;;;0.47;0.30;;;;;;;20.61;100.00;94728.53;5074344;28;20469;-57
2023/07/02 02:52:02;;;;;;;0.50;0.30;;;;;;;20.45;100.00;94735.81;5075072;28;20442;-58
2023/07/02 02:54:30;;;;;;;0.40;0.20;;;;;;;20.36;100.00;94748.66;5074580;28;21150;-58
2023/07/02 02:56:58;;;;;;;0.40;0.30;;;;;;;20.35;100.00;94749.75;5074487;28;20503;-58
2023/07/02 02:59:27;;;;;;;0.50;0.50;;;;;;;20.29;100.00;94760.00;5073093;28;20481;-58
2023/07/02 03:01:56;;;;;;;0.60;0.30;;;;;;;20.20;100.00;94768.19;5074304;28;20869;-59
2023/07/02 03:04:25;;;;;;;0.70;0.60;;;;;;;20.34;100.00;94783.97;5073159;28;20445;-56
2023/07/02 03:06:53;;;;;;;0.50;0.40;;;;;;;19.78;100.00;94793.91;5073275;28;20437;-58
2023/07/02 03:09:22;;;;;;;3.53;0.70;;;;;;;19.88;100.00;94789.94;5073282;28;20441;-56
2023/07/02 03:11:50;;;;;;;1.13;0.30;;;;;;;20.27;100.00;94787.25;5074381;28;20441;-56
2023/07/02 03:14:18;;;;;;;0.50;0.40;;;;;;;20.33;100.00;94789.69;5073543;28;20536;-57
2023/07/02 03:16:47;;;;;;;1.03;0.97;;;;;;;20.34;100.00;94781.28;5073874;28;20532;-56
2023/07/02 03:19:16;;;;;;;0.50;0.43;;;;;;;20.67;100.00;94781.03;5068713;28;20504;-57
2023/07/02 03:21:46;;;;;;;0.40;0.20;;;;;;;20.20;100.00;94735.13;5067016;28;20547;-56
2023/07/02 03:24:15;;;;;;;5.50;0.30;;;;;;;20.52;100.00;94787.91;5074222;28;20445;-56
2023/07/02 03:26:45;;;;;;;0.50;0.40;;;;;;;20.52;100.00;94763.69;5072732;28;20441;-56
2023/07/02 03:29:13;;;;;;;0.40;0.33;;;;;;;20.54;100.00;94777.59;5074382;28;20476;-56
2023/07/02 03:31:41;;;;;;;0.70;0.43;;;;;;;20.55;100.00;94787.25;5073959;28;20473;-56
2023/07/02 03:34:11;;;;;;;0.50;0.30;;;;;;;20.54;100.00;94788.34;5074449;28;20473;-56
2023/07/02 03:36:40;;;;;;;0.90;0.90;;;;;;;20.75;100.00;94782.75;5073510;28;20796;-58
2023/07/02 03:39:09;;;;;;;0.60;0.50;;;;;;;20.73;100.00;94776.94;5073703;28;20473;-57
2023/07/02 03:41:38;;;;;;;4.37;0.60;;;;;;;20.30;100.00;94721.19;5073611;28;20438;-58
2023/07/02 03:44:07;;;;;;;1.07;0.30;;;;;;;20.59;100.00;94774.63;5065159;28;20438;-57
2023/07/02 03:46:35;;;;;;;0.40;0.30;;;;;;;20.61;100.00;94767.03;5069735;28;20441;-56
2023/07/02 03:49:04;;;;;;;0.40;0.20;;;;;;;20.33;100.00;94757.41;5073848;28;20441;-56
2023/07/02 03:51:33;;;;;;;1.17;0.50;;;;;;;20.33;100.00;94765.47;5073966;28;20988;-55
2023/07/02 03:54:03;;;;;;;0.50;0.40;;;;;;;20.71;100.00;94771.13;5073146;28;21276;-56
2023/07/02 03:56:31;;;;;;;0.50;0.30;;;;;;;20.92;100.00;94780.50;5072988;28;20481;-56
2023/07/02 03:58:59;;;;;;;10.90;0.77;;;;;;;20.75;100.00;94783.53;5073643;28;20836;-56
2023/07/02 04:01:28;;;;;;;0.83;0.83;;;;;;;20.88;100.00;94792.31;5073660;28;20437;-56
2023/07/02 04:03:58;;;;;;;4.47;0.40;;;;;;;21.01;100.00;94785.72;5073947;28;20437;-56
2023/07/02 04:06:26;;;;;;;15.63;1.10;;;;;;;20.97;100.00;94787.56;5073620;28;20441;-57
2023/07/02 04:08:54;;;;;;;1.40;0.80;;;;;;;20.92;100.00;94800.50;5073433;28;20441;-56
2023/07/02 04:11:24;;;;;;;0.87;0.60;;;;;;;20.90;100.00;94803.53;5073738;28;20433;-56
2023/07/02 04:13:52;;;;;;;0.80;0.70;;;;;;;20.69;100.00;94813.78;5072600;28;20473;-57
2023/07/02 04:16:21;;;;;;;0.50;0.50;;;;;;;20.88;100.00;94820.06;5072589;28;20449;-55
2023/07/02 04:18:49;;;;;;;0.57;0.57;;;;;;;20.99;100.00;94824.94;5072027;28;20492;-56
2023/07/02 04:21:18;;;;;;;0.70;0.40;;;;;;;21.20;100.00;94820.13;5072456;28;20433;-61
2023/07/02 04:23:46;;;;;;;0.60;0.53;;;;;;;21.14;100.00;94824.97;5067117;28;20958;-56
2023/07/02 04:26:15;;;;;;;5.80;0.70;;;;;;;20.79;100.00;94815.97;5073132;28;20442;-55
2023/07/02 04:29:04;;;;;;;1.13;0.63;;;;;;;20.87;100.00;94821.16;5072824;28;20521;-55
2023/07/02 04:31:33;;;;;;;0.40;0.40;;;;;;;20.86;100.00;94814.22;5073027;28;20445;-56
2023/07/02 04:34:01;;;;;;;0.67;0.67;;;;;;;20.98;100.00;94816.06;5072834;28;20521;-56
2023/07/02 04:36:29;;;;;;;0.60;0.50;;;;;;;21.26;100.00;94816.00;5073214;28;20437;-56
2023/07/02 04:38:58;;;;;;;0.50;0.40;;;;;;;21.46;100.00;94812.25;5072767;28;20465;-56
2023/07/02 04:41:29;;;;;;;0.70;0.60;;;;;;;21.63;100.00;94811.88;5073408;28;20485;-56
2023/07/02 04:43:57;;;;;;;0.40;0.30;;;;;;;21.55;100.00;94817.47;5073554;28;20453;-57
2023/07/02 04:46:27;;;;;;;0.60;0.50;;;;;;;21.67;100.00;94820.84;5072273;28;20537;-57
2023/07/02 04:48:56;;;;;;;4.77;1.37;;;;;;;21.25;100.00;94817.91;5073132;28;20887;-56
2023/07/02 04:51:24;;;;;;;3.80;0.80;;;;;;;20.98;100.00;94823.34;5073086;28;20449;-56
2023/07/02 04:53:52;;;;;;;1.73;1.63;;;;;;;20.70;100.00;94826.09;5072921;28;20950;-57
2023/07/02 04:56:21;;;;;;;10.87;0.93;;;;;;;20.85;100.00;94822.66;5072317;28;20441;-56
2023/07/02 04:58:49;;;;;;;3.50;1.30;;;;;;;20.53;100.00;94821.03;5073049;28;20433;-57
2023/07/02 05:01:17;;;;;;;1.80;1.70;;;;;;;20.80;100.00;94807.53;5073112;28;20564;-57
2023/07/02 05:03:47;;;;;;;0.50;0.40;;;;;;;20.51;100.00;94809.81;5073091;28;20457;-57
2023/07/02 05:06:16;;;;;;;1.50;0.67;;;;;;;20.35;100.00;94806.28;5071126;28;20434;-58
2023/07/02 05:08:44;;;;;;;1.00;1.00;;;;;;;20.41;100.00;94786.09;5073150;28;20442;-57
2023/07/02 05:11:12;;;;;;;0.50;0.40;;;;;;;20.25;100.00;94802.19;5072225;28;20441;-57
2023/07/02 05:13:40;;;;;;;1.47;1.37;;;;;;;20.50;100.00;94795.56;5072399;28;20505;-57
2023/07/02 05:16:10;;;;;;;2.10;0.83;;;;;;;20.76;100.00;94789.72;5071992;28;20476;-57
2023/07/02 05:18:39;;;;;;;2.10;0.87;;;;;;;20.51;100.00;94796.34;5072334;28;20441;-57
2023/07/02 05:21:08;;;;;;;4.60;0.60;;;;;;;20.47;100.00;94731.63;5072498;28;21007;-57
2023/07/02 05:23:37;;;;;;;5.30;0.80;;;;;;;20.99;100.00;94797.97;5071616;28;20465;-57
2023/07/02 05:26:05;;;;;;;2.10;0.60;;;;;;;21.11;100.00;94789.84;5071909;28;20441;-57
2023/07/02 05:28:33;;;;;;;1.77;0.93;;;;;;;20.99;100.00;94787.22;5071978;28;20997;-57
2023/07/02 05:31:02;;;;;;;1.47;0.60;;;;;;;21.23;100.00;94787.84;5072264;28;20445;-57
2023/07/02 05:33:32;;;;;;;0.70;0.70;;;;;;;21.64;100.00;94791.88;5071648;28;20528;-56
2023/07/02 05:36:00;;;;;;;3.30;1.70;;;;;;;21.54;100.00;94792.41;5072454;28;20468;-57
2023/07/02 05:38:30;;;;;;;0.40;0.30;;;;;;;21.96;100.00;94784.53;5071602;28;20440;-58
2023/07/02 05:40:58;;;;;;;0.40;0.33;;;;;;;21.94;100.00;94789.47;5071804;28;20478;-58
2023/07/02 05:43:26;;;;;;;0.40;0.30;;;;;;;22.60;100.00;94784.63;5068277;28;20435;-58
2023/07/02 05:45:55;;;;;;;0.63;0.63;;;;;;;23.14;98.94;94780.97;5062700;28;20469;-58
2023/07/02 05:48:24;;;;;;;0.83;0.40;;;;;;;23.44;94.28;94781.88;5071725;28;20941;-58
2023/07/02 05:50:52;;;;;;;0.43;0.33;;;;;;;23.68;93.88;94784.16;5071928;28;20945;-58
2023/07/02 05:53:20;;;;;;;0.60;0.50;;;;;;;23.56;94.37;94786.28;5071466;28;20499;-57
2023/07/02 05:55:50;;;;;;;2.03;0.37;;;;;;;23.81;90.79;94787.44;5072211;28;20750;-58
2023/07/02 05:58:20;;;;;;;0.70;0.70;;;;;;;23.41;91.14;94785.31;5071212;28;20445;-58
2023/07/02 06:00:56;;;;;;;0.40;0.30;;;;;;;23.80;92.53;94778.56;5071353;28;20567;-58
2023/07/02 06:03:24;;;;;;;0.40;0.30;;;;;;;23.52;91.67;94783.56;5064647;28;20877;-59
2023/07/02 06:05:53;;;;;;;0.40;0.40;;;;;;;23.03;94.04;94774.59;5066403;28;20473;-58
2023/07/02 06:08:21;;;;;;;0.60;0.40;;;;;;;23.46;91.63;94766.06;5071564;28;20966;-59
2023/07/02 06:10:51;;;;;;;0.40;0.30;;;;;;;23.82;90.14;94768.16;5071817;28;20441;-55
2023/07/02 06:13:19;;;;;;;0.50;0.50;;;;;;;23.17;95.48;94613.41;5071512;28;20433;-55
2023/07/02 06:15:47;;;;;;;0.43;0.30;;;;;;;24.35;97.97;94766.13;5071328;28;20483;-54
2023/07/02 06:18:17;;;;;;;0.60;0.60;;;;;;;24.52;100.00;94778.31;5071413;28;20438;-55
2023/07/02 06:20:45;;;;;;;0.90;0.70;;;;;;;24.11;100.00;94772.00;5071422;28;20951;-60
2023/07/02 06:23:14;;;;;;;0.77;0.77;;;;;;;23.58;100.00;94778.63;5071692;28;20464;-59
2023/07/02 06:25:43;;;;;;;0.60;0.60;;;;;;;23.11;100.00;94774.38;5071216;28;20476;-61
2023/07/02 06:28:12;;;;;;;1.13;0.60;;;;;;;23.29;100.00;94780.06;5071477;28;20480;-62
2023/07/02 06:30:41;;;;;;;1.43;1.27;;;;;;;23.73;100.00;94774.97;5070476;28;20495;-61
2023/07/02 06:33:09;;;;;;;2.87;2.20;;;;;;;23.90;100.00;94777.94;5070838;28;20961;-61
2023/07/02 06:35:37;;;;;;;1.57;1.47;;;;;;;23.62;100.00;94769.41;5071333;28;20525;-61
2023/07/02 06:38:06;;;;;;;3.13;0.93;;;;;;;23.65;100.00;94763.28;5069993;28;20495;-61
2023/07/02 06:40:34;;;;;;;0.70;0.70;;;;;;;24.21;100.00;94765.94;5068986;28;20531;-61
2023/07/02 06:43:02;;;;;;;0.70;0.70;;;;;;;24.61;99.10;94765.25;5069218;28;20506;-62
2023/07/02 06:45:32;;;;;;;1.37;1.27;;;;;;;25.67;92.03;94752.66;5043256;28;20557;-59
2023/07/02 06:48:01;;;;;;;0.80;0.80;;;;;;;25.18;86.72;94742.97;5069075;28;21003;-60
2023/07/02 06:50:29;;;;;;;1.23;0.70;;;;;;;25.00;87.38;94752.09;5070647;28;20445;-62
2023/07/02 06:52:57;;;;;;;1.70;1.60;;;;;;;24.51;89.10;94738.84;5071062;28;20506;-61
2023/07/02 06:55:26;;;;;;;9.73;0.60;;;;;;;24.87;89.77;94737.28;5071275;28;20442;-61
2023/07/02 06:57:54;;;;;;;0.80;0.50;;;;;;;24.87;88.38;94723.75;5071350;28;20817;-61
2023/07/02 07:00:22;;;;;;;0.53;0.53;;;;;;;25.07;89.55;94738.63;5071224;28;20523;-61
2023/07/02 07:02:52;;;;;;;1.60;1.27;;;;;;;25.33;86.84;94740.34;5071032;28;20437;-62
2023/07/02 07:05:21;;;;;;;7.07;0.70;;;;;;;25.27;84.91;94714.75;5070862;28;20444;-64
2023/07/02 07:07:49;;;;;;;0.60;0.50;;;;;;;24.94;85.69;94737.34;5070827;28;20461;-65
2023/07/02 07:10:20;;;;;;;0.60;0.30;;;;;;;25.43;84.51;94734.22;5070848;28;20438;-65
2023/07/02 07:12:48;;;;;;;0.40;0.30;;;;;;;25.98;81.54;94733.06;5071044;28;20434;-64
2023/07/02 07:15:16;;;;;;;1.13;0.30;;;;;;;25.62;81.13;94696.03;5070877;28;20478;-64
2023/07/02 07:17:45;;;;;;;0.53;0.53;;;;;;;25.88;81.10;94727.56;5071102;28;20433;-64
2023/07/02 07:20:15;;;;;;;0.57;0.57;;;;;;;25.40;80.44;94737.72;5071144;28;20460;-64
2023/07/02 07:22:43;;;;;;;0.50;0.50;;;;;;;25.19;83.88;94735.63;5070846;28;20438;-66
2023/07/02 07:25:11;;;;;;;0.60;0.60;;;;;;;25.59;83.77;94740.97;5070866;28;21072;-65
2023/07/02 07:27:40;;;;;;;0.60;0.40;;;;;;;26.01;81.94;94739.66;5071165;28;20465;-65
2023/07/02 07:30:09;;;;;;;0.50;0.40;;;;;;;26.03;80.97;94735.41;5074085;28;20938;-64
2023/07/02 07:32:37;;;;;;;1.17;1.17;;;;;;;25.19;82.17;94743.75;5073528;28;20437;-65
2023/07/02 07:35:06;;;;;;;0.60;0.57;;;;;;;25.21;83.58;94744.94;5074257;28;20961;-65
2023/07/02 07:37:36;;;;;;;0.40;0.40;;;;;;;25.23;82.13;94737.19;5074503;28;20464;-65
2023/07/02 07:40:06;;;;;;;2.20;0.70;;;;;;;25.05;81.61;94740.91;5074282;28;20900;-65
2023/07/02 07:42:34;;;;;;;9.33;0.50;;;;;;;25.35;83.13;94738.06;5074161;28;20442;-63
2023/07/02 07:45:04;;;;;;;1.17;1.03;;;;;;;25.46;81.02;94728.88;5073976;28;20491;-63
2023/07/02 07:47:32;;;;;;;1.40;1.13;;;;;;;26.15;77.76;94731.59;5074052;28;20438;-64
2023/07/02 07:50:00;;;;;;;0.50;0.50;;;;;;;27.42;71.64;94734.59;5074208;28;20468;-63
2023/07/02 07:52:29;;;;;;;1.53;1.23;;;;;;;27.73;67.64;94731.03;5073548;28;20438;-63
2023/07/02 07:54:59;;;;;;;0.40;0.30;;;;;;;27.54;68.08;94736.91;5073305;28;20465;-63
2023/07/02 07:57:27;;;;;;;0.70;0.50;;;;;;;27.69;68.90;94736.50;5073121;28;20457;-64
2023/07/02 07:59:55;;;;;;;9.40;0.67;;;;;;;27.71;68.19;94730.66;5073545;28;20438;-65
2023/07/02 08:02:24;;;;;;;0.43;0.40;;;;;;;27.64;66.30;94728.72;5073195;28;20480;-64
2023/07/02 08:04:52;;;;;;;0.80;0.40;;;;;;;28.58;66.48;94725.31;5073315;28;20430;-63
2023/07/02 08:07:20;;;;;;;3.90;0.40;;;;;;;28.24;66.71;94727.78;5073502;28;20849;-63
2023/07/02 08:09:49;;;;;;;2.77;0.50;;;;;;;27.96;67.82;94738.75;5047794;28;20434;-63
2023/07/02 08:12:19;;;;;;;0.70;0.53;;;;;;;28.13;66.88;94725.09;5073395;28;20954;-63
2023/07/02 08:14:47;;;;;;;0.40;0.40;;;;;;;27.52;65.43;94731.09;5073483;28;20861;-64
2023/07/02 08:17:16;;;;;;;0.60;0.40;;;;;;;27.84;65.36;94720.91;5073510;28;20445;-64
2023/07/02 08:19:44;;;;;;;4.53;0.57;;;;;;;28.15;65.66;94730.19;5074178;28;20450;-63
2023/07/02 08:22:13;;;;;;;0.77;0.63;;;;;;;26.66;66.95;94729.44;5073204;28;20973;-64
2023/07/02 08:24:41;;;;;;;0.90;0.90;;;;;;;26.29;68.44;94721.56;5073265;28;20815;-65
2023/07/02 08:27:13;;;;;;;0.40;0.30;;;;;;;26.20;68.19;94569.03;5073060;28;20434;-64
2023/07/02 08:29:43;;;;;;;0.93;0.30;;;;;;;27.76;67.29;94722.09;5073455;28;20441;-64
2023/07/02 08:32:13;;;;;;;3.40;0.30;;;;;;;27.71;66.95;94723.28;5072897;28;20453;-65
2023/07/02 08:34:41;;;;;;;0.60;0.50;;;;;;;27.17;69.88;94726.41;5073166;28;20433;-65
2023/07/02 08:37:10;;;;;;;0.40;0.30;;;;;;;26.68;69.01;94731.75;5072784;28;20491;-64
2023/07/02 08:39:39;;;;;;;0.83;0.83;;;;;;;27.17;70.27;94723.69;5073349;28;20503;-65
2023/07/02 08:42:08;;;;;;;0.70;0.50;;;;;;;27.15;68.90;94723.28;5072870;28;20477;-65
2023/07/02 08:44:36;;;;;;;1.27;0.30;;;;;;;27.28;68.52;94726.41;5060169;28;20439;-64
2023/07/02 08:47:07;;;;;;;0.50;0.30;;;;;;;26.98;68.40;94691.44;5046924;28;20495;-64
2023/07/02 08:49:35;;;;;;;0.43;0.40;;;;;;;26.64;69.42;94714.69;5072982;28;20441;-64
2023/07/02 08:52:04;;;;;;;0.70;0.50;;;;;;;26.43;70.05;94731.72;5073120;28;20496;-66
2023/07/02 08:54:32;;;;;;;3.30;0.67;;;;;;;26.73;67.65;94728.66;5072592;28;20481;-66
2023/07/02 08:57:04;;;;;;;0.67;0.60;;;;;;;26.92;67.26;94729.09;5074280;28;20438;-66
2023/07/02 08:59:33;;;;;;;1.40;0.63;;;;;;;26.27;67.65;94706.81;5073785;28;20978;-66
2023/07/02 09:02:02;;;;;;;0.40;0.30;;;;;;;25.97;68.08;94726.06;5062777;28;20525;-66
2023/07/02 09:04:31;;;;;;;0.40;0.40;;;;;;;25.59;70.41;94729.34;5069460;28;21001;-67
2023/07/02 09:07:07;;;;;;;5.07;0.30;;;;;;;25.08;70.41;94718.47;5072587;28;20948;-66
2023/07/02 09:09:46;;;;;;;0.60;0.40;;;;;;;25.61;70.82;94730.53;5072202;28;20438;-66
2023/07/02 09:12:24;;;;;;;0.40;0.30;;;;;;;26.10;69.50;94731.94;5072039;28;20441;-62
2023/07/02 09:14:57;;;;;;;0.50;0.30;;;;;;;25.74;69.62;94720.13;5072248;28;20538;-62
2023/07/02 09:17:30;;;;;;;0.40;0.30;;;;;;;25.52;69.27;94726.59;5072490;28;20469;-62
2023/07/02 09:20:02;;;;;;;0.30;0.20;;;;;;;25.91;68.97;94699.66;5072413;28;20433;-62
2023/07/02 09:22:30;;;;;;;0.40;0.30;;;;;;;26.99;66.94;94725.63;5071824;28;20534;-64
2023/07/02 09:25:00;;;;;;;0.93;0.63;;;;;;;26.77;68.27;94722.09;5072399;28;20433;-66
2023/07/02 09:27:36;;;;;;;0.40;0.40;;;;;;;27.15;68.43;94717.09;5066269;28;20475;-64
2023/07/02 09:30:10;;;;;;;0.43;0.40;;;;;;;26.32;68.03;94688.19;5066191;28;20490;-65
2023/07/02 09:32:38;;;;;;;1.43;0.70;;;;;;;26.41;68.10;94726.63;5072139;28;20445;-67
2023/07/02 09:35:08;;;;;;;0.90;0.50;;;;;;;26.70;68.98;94734.88;5071673;28;20809;-66
2023/07/02 09:37:37;;;;;;;2.20;0.87;;;;;;;26.88;69.23;94703.06;5072285;28;20471;-64
2023/07/02 09:40:09;;;;;;;0.47;0.40;;;;;;;26.91;67.74;94715.91;5071760;28;20442;-64
2023/07/02 09:42:40;;;;;;;0.70;0.60;;;;;;;27.10;68.79;94718.22;5072201;28;20534;-64
2023/07/02 09:45:10;;;;;;;3.40;0.37;;;;;;;28.08;65.46;94690.09;5071673;28;20446;-63
2023/07/02 09:47:44;;;;;;;1.23;0.50;;;;;;;29.51;65.54;94716.09;5072118;28;20438;-63
2023/07/02 09:50:17;;;;;;;0.60;0.60;;;;;;;29.57;58.80;94689.91;5071293;28;20456;-61
2023/07/02 09:52:46;;;;;;;3.53;1.73;;;;;;;29.51;58.63;94699.72;5071399;28;20484;-64
2023/07/02 09:55:16;;;;;;;0.60;0.43;;;;;;;30.31;56.15;94652.78;5045662;28;20438;-62
2023/07/02 09:57:46;;;;;;;0.73;0.73;;;;;;;29.94;58.17;94711.00;5071945;28;20502;-63
2023/07/02 10:00:16;;;;;;;0.47;0.43;;;;;;;29.34;59.34;94711.56;5072188;28;20453;-62
2023/07/02 10:02:49;;;;;;;0.70;0.50;;;;;;;29.55;61.40;94706.69;5071186;28;21001;-64
2023/07/02 10:05:29;;;;;;;0.50;0.37;;;;;;;29.39;61.64;94713.88;5072166;28;20434;-64
2023/07/02 10:07:58;;;;;;;0.63;0.40;;;;;;;29.96;59.75;94706.69;5071522;28;20443;-64
2023/07/02 10:10:29;;;;;;;0.77;0.77;;;;;;;30.00;58.73;94701.97;5071825;28;20445;-62
2023/07/02 10:12:57;;;;;;;0.50;0.50;;;;;;;28.94;59.94;94704.84;5070997;28;20918;-63
2023/07/02 10:15:27;;;;;;;0.70;0.70;;;;;;;28.21;62.25;94696.66;5071293;28;21009;-64
2023/07/02 10:17:57;;;;;;;3.40;0.90;;;;;;;27.29;64.43;94701.53;5071687;28;20430;-61
2023/07/02 10:20:38;;;;;;;0.57;0.43;;;;;;;27.56;64.71;94713.56;5071241;28;20515;-64
2023/07/02 10:23:07;;;;;;;0.50;0.50;;;;;;;27.28;65.84;94663.81;5071919;28;20519;-66
2023/07/02 10:25:38;;;;;;;0.50;0.40;;;;;;;27.20;65.00;94654.88;5071338;28;20779;-65
2023/07/02 10:28:16;;;;;;;0.50;0.40;;;;;;;27.54;65.35;94694.13;5071561;28;20433;-65
2023/07/02 10:30:45;;;;;;;0.60;0.40;;;;;;;28.06;64.40;94699.84;5071713;28;20478;-65
2023/07/02 10:33:15;;;;;;;2.80;0.50;;;;;;;27.91;64.50;94688.19;5071358;28;20863;-65
2023/07/02 10:35:47;;;;;;;2.07;1.50;;;;;;;28.29;63.96;94687.28;5070668;28;20441;-63
2023/07/02 10:38:16;;;;;;;0.57;0.40;;;;;;;27.78;63.46;94676.16;5071138;28;20444;-63
2023/07/02 10:40:45;;;;;;;0.90;0.80;;;;;;;27.76;64.70;94681.25;5071551;28;20437;-63
2023/07/02 10:43:14;;;;;;;0.57;0.57;;;;;;;28.04;62.81;94670.28;5070769;28;20466;-63
2023/07/02 10:45:42;;;;;;;1.07;0.60;;;;;;;27.95;61.54;94671.84;5071029;28;21010;-65
2023/07/02 10:48:11;;;;;;;0.77;0.77;;;;;;;27.57;62.29;94663.41;5071182;28;20469;-66
2023/07/02 10:50:39;;;;;;;0.70;0.67;;;;;;;26.47;63.46;94536.81;5071379;28;20474;-66
2023/07/02 10:53:16;;;;;;;1.67;0.77;;;;;;;27.41;62.86;94659.53;5071769;28;20429;-66
2023/07/02 10:55:45;;;;;;;0.40;0.30;;;;;;;27.79;61.40;94657.88;5071339;28;20437;-67
2023/07/02 10:58:14;;;;;;;2.30;2.20;;;;;;;27.22;62.99;94649.06;5071040;28;20430;-67
2023/07/02 11:00:46;;;;;;;12.57;1.10;;;;;;;26.87;64.89;94652.56;5071548;28;20437;-67
2023/07/02 11:03:19;;;;;;;3.27;1.13;;;;;;;27.24;67.08;94654.88;5046743;28;20509;-67
2023/07/02 11:05:48;;;;;;;0.60;0.40;;;;;;;27.43;67.42;94655.25;5075071;28;20445;-65
2023/07/02 11:08:19;;;;;;;0.30;0.30;;;;;;;27.92;66.81;94642.66;5075277;28;20445;-67
2023/07/02 11:10:48;;;;;;;0.87;0.87;;;;;;;27.76;65.31;94647.78;5074441;28;20484;-66
2023/07/02 11:13:18;;;;;;;0.60;0.60;;;;;;;28.28;64.41;94655.00;5074822;28;20433;-66
2023/07/02 11:15:47;;;;;;;0.53;0.50;;;;;;;28.99;65.52;94646.34;5076545;28;20513;-64
2023/07/02 11:18:20;;;;;;;0.43;0.40;;;;;;;30.01;60.54;94637.91;5074816;28;20437;-63
2023/07/02 11:20:49;;;;;;;0.70;0.70;;;;;;;29.44;58.20;94601.50;5074470;28;20441;-64
2023/07/02 11:23:23;;;;;;;1.40;0.57;;;;;;;29.46;59.38;94634.63;5074818;28;20527;-63
2023/07/02 11:25:58;;;;;;;0.70;0.70;;;;;;;29.97;61.33;94628.22;5073982;28;20433;-62
2023/07/02 11:28:29;;;;;;;0.97;0.77;;;;;;;30.89;59.00;94610.53;5074844;28;20445;-61
2023/07/02 11:30:59;;;;;;;0.97;0.83;;;;;;;31.97;57.27;94615.22;5074312;28;20942;-62
2023/07/02 11:33:35;;;;;;;0.60;0.60;;;;;;;32.33;55.73;94618.78;5074011;28;20452;-62
2023/07/02 11:36:04;;;;;;;0.40;0.40;;;;;;;32.83;54.58;94610.22;5074438;28;20428;-62
2023/07/02 11:38:35;;;;;;;0.60;0.50;;;;;;;33.98;51.02;94601.38;5074243;28;20429;-62